Terminal Aerodrome Forecast
Issued by NWS Lake Charles, LA

Home | Current Version | Previous Version | Text Only | Print | Product List | Glossary On
Versions: 1 2 3 4 5 6 7 8 9 10 11 12 13 14 15 16 17
000
FTUS44 KLCH 080136 AAA
TAFBPT
TAF AMD
KBPT 080136Z 0802/0824 18008KT P6SM VCSH FEW025 SCT035
     FM080600 18007KT P6SM SCT025
      TEMPO 0809/0813 BKN025
     FM081500 18014G22KT P6SM SCT035=

USA.gov is the U.S. government's official web portal to all federal, state and local government web resources and services.